Time;durP1;ratioP1;P1;durP2;ratioP2;P2;SDS_P1;SDS_P2;PMS_P1;PMS_P2;Temp;Humidity;BMP_temperature;BMP_pressure;BME280_temperature;BME280_humidity;BME280_pressure;Samples;Min_cycle;Max_cycle;Signal;HPM_P1;HPM_P2
2022/03/13 00:00:53;;;;;;;16.10;9.70;;;6.20;55.20;;;;;;5023276;28;20447;-46
2022/03/13 00:03:22;;;;;;;11.73;9.90;;;6.10;55.40;;;;;;5031534;28;20554;-45
2022/03/13 00:05:51;;;;;;;14.70;9.20;;;6.10;55.70;;;;;;5026799;28;20464;-46
2022/03/13 00:08:27;;;;;;;15.37;10.43;;;6.20;55.50;;;;;;5010786;28;20456;-46
2022/03/13 00:11:14;;;;;;;15.90;10.70;;;6.20;55.60;;;;;;5005011;28;20519;-46
2022/03/13 00:13:50;;;;;;;14.03;10.00;;;6.10;55.50;;;;;;5024083;28;20460;-46
2022/03/13 00:16:18;;;;;;;14.70;9.90;;;6.10;55.30;;;;;;5020889;28;20455;-46
2022/03/13 00:18:49;;;;;;;14.27;10.17;;;6.00;55.20;;;;;;5023368;28;20452;-46
2022/03/13 00:21:18;;;;;;;15.57;10.37;;;6.00;55.20;;;;;;5021774;28;20452;-46
2022/03/13 00:23:46;;;;;;;15.57;11.57;;;5.90;55.40;;;;;;5016934;28;21038;-46
2022/03/13 00:26:15;;;;;;;15.63;10.50;;;5.90;55.50;;;;;;5025795;28;20468;-46
2022/03/13 00:28:45;;;;;;;18.23;10.77;;;5.90;55.50;;;;;;5025205;28;20931;-46
2022/03/13 00:31:12;;;;;;;15.40;10.73;;;5.80;55.80;;;;;;5024825;28;20994;-45
2022/03/13 00:33:39;;;;;;;12.40;9.63;;;5.80;56.20;;;;;;5025307;28;20455;-46
2022/03/13 00:36:06;;;;;;;13.63;9.60;;;5.80;56.00;;;;;;5026025;28;20535;-46
2022/03/13 00:38:33;;;;;;;16.40;9.80;;;5.80;56.40;;;;;;5028533;28;20498;-46
2022/03/13 00:41:00;;;;;;;15.63;10.60;;;5.70;56.40;;;;;;5013845;28;20447;-45
2022/03/13 00:43:28;;;;;;;17.03;9.60;;;5.60;56.50;;;;;;5025693;28;20475;-46
2022/03/13 00:45:55;;;;;;;18.03;10.73;;;5.60;57.00;;;;;;5025963;28;20466;-46
2022/03/13 00:48:25;;;;;;;16.20;9.93;;;5.60;56.70;;;;;;5028131;28;20446;-46
2022/03/13 00:50:51;;;;;;;12.43;10.13;;;5.50;56.60;;;;;;5026260;28;20493;-46
2022/03/13 00:53:18;;;;;;;13.10;10.10;;;5.50;56.90;;;;;;5024737;28;20674;-46
2022/03/13 00:55:45;;;;;;;12.03;9.50;;;5.50;56.80;;;;;;5020607;28;20454;-46
2022/03/13 00:58:13;;;;;;;12.60;9.33;;;5.50;56.90;;;;;;5027085;28;20454;-46
2022/03/13 01:00:40;;;;;;;15.47;10.40;;;5.40;57.10;;;;;;5010672;28;20459;-46
2022/03/13 01:03:17;;;;;;;14.47;10.47;;;5.40;57.60;;;;;;5024264;28;20471;-46
2022/03/13 01:05:44;;;;;;;16.30;10.57;;;5.40;57.40;;;;;;5024441;28;20451;-46
2022/03/13 01:08:11;;;;;;;12.27;8.97;;;5.30;57.20;;;;;;5022613;28;20462;-46
2022/03/13 01:10:38;;;;;;;12.60;9.30;;;5.30;57.90;;;;;;5008694;28;20875;-46
2022/03/13 01:13:04;;;;;;;14.10;9.93;;;5.30;57.80;;;;;;5022513;28;20648;-46
2022/03/13 01:15:32;;;;;;;13.20;9.27;;;5.20;57.50;;;;;;5025396;28;20466;-46
2022/03/13 01:17:59;;;;;;;13.73;9.67;;;5.20;57.70;;;;;;5025554;28;20458;-46
2022/03/13 01:20:25;;;;;;;15.27;9.93;;;5.20;57.60;;;;;;5024982;28;20487;-46
2022/03/13 01:22:52;;;;;;;13.80;9.47;;;5.20;57.30;;;;;;5022646;28;20473;-46
2022/03/13 01:25:19;;;;;;;11.53;9.93;;;5.10;57.10;;;;;;5025184;28;20466;-46
2022/03/13 01:27:46;;;;;;;14.60;10.63;;;5.20;57.40;;;;;;5024785;28;20824;-46
2022/03/13 01:30:14;;;;;;;14.30;10.10;;;5.20;57.00;;;;;;5024968;28;20546;-46
2022/03/13 01:32:42;;;;;;;12.60;9.07;;;5.20;56.80;;;;;;5007620;28;20497;-46
2022/03/13 01:35:09;;;;;;;13.70;9.80;;;5.20;57.10;;;;;;5007322;28;20467;-46
2022/03/13 01:37:40;;;;;;;12.37;10.40;;;5.10;57.00;;;;;;5025179;28;20530;-46
2022/03/13 01:40:19;;;;;;;12.60;9.50;;;5.20;56.90;;;;;;5022366;28;20799;-46
2022/03/13 01:42:48;;;;;;;10.97;9.07;;;5.10;56.70;;;;;;5021103;28;20509;-46
2022/03/13 01:45:19;;;;;;;13.50;8.57;;;5.20;56.50;;;;;;5021856;28;20474;-46
2022/03/13 01:47:47;;;;;;;12.30;9.50;;;5.20;56.50;;;;;;5022151;28;20483;-46
2022/03/13 01:50:15;;;;;;;13.53;9.73;;;5.10;56.30;;;;;;5025553;28;20474;-46
2022/03/13 01:52:47;;;;;;;14.57;9.30;;;5.00;56.60;;;;;;5016121;28;20499;-46
2022/03/13 01:55:14;;;;;;;12.40;9.80;;;5.00;56.90;;;;;;5009520;28;20463;-46
2022/03/13 01:57:45;;;;;;;13.50;9.20;;;5.00;57.00;;;;;;5022572;28;20486;-46
2022/03/13 02:00:13;;;;;;;11.00;9.27;;;4.90;56.90;;;;;;5002827;28;20500;-46
2022/03/13 02:02:45;;;;;;;15.80;9.53;;;4.90;56.80;;;;;;5019584;28;20467;-46
2022/03/13 02:05:35;;;;;;;14.37;9.10;;;4.80;57.00;;;;;;5015878;28;20460;-46
2022/03/13 02:08:28;;;;;;;13.40;8.63;;;4.80;57.00;;;;;;5005718;28;21120;-46
2022/03/13 02:10:57;;;;;;;14.60;9.43;;;4.80;56.70;;;;;;5024139;28;20475;-46
2022/03/13 02:13:24;;;;;;;15.90;8.93;;;4.80;56.70;;;;;;5023496;28;20481;-46
2022/03/13 02:15:53;;;;;;;12.67;9.20;;;4.80;56.40;;;;;;5018699;28;22212;-46
2022/03/13 02:18:20;;;;;;;12.73;9.30;;;4.80;56.30;;;;;;5023341;28;20546;-46
2022/03/13 02:20:47;;;;;;;14.20;9.70;;;4.80;56.20;;;;;;5006175;28;20463;-46
2022/03/13 02:23:24;;;;;;;12.17;9.40;;;4.80;56.30;;;;;;5018169;28;20464;-46
2022/03/13 02:25:57;;;;;;;14.20;9.47;;;4.70;56.30;;;;;;5019780;28;20455;-46
2022/03/13 02:28:26;;;;;;;15.43;9.57;;;4.70;56.30;;;;;;5022499;28;20815;-46
2022/03/13 02:30:58;;;;;;;14.77;9.40;;;4.60;56.30;;;;;;5026649;28;21053;-46
2022/03/13 02:33:25;;;;;;;12.17;8.13;;;4.60;56.30;;;;;;5039044;28;20447;-45
2022/03/13 02:36:02;;;;;;;12.90;9.10;;;4.70;56.30;;;;;;5009083;28;20474;-46
2022/03/13 02:38:30;;;;;;;12.27;8.57;;;4.70;56.00;;;;;;5025789;28;20455;-46
2022/03/13 02:40:58;;;;;;;14.63;9.63;;;4.60;56.10;;;;;;5029575;28;20458;-46
2022/03/13 02:43:25;;;;;;;12.37;9.30;;;4.60;55.90;;;;;;5024862;28;20949;-46
2022/03/13 02:45:52;;;;;;;11.00;8.80;;;4.60;56.00;;;;;;5023905;28;20455;-46
2022/03/13 02:48:20;;;;;;;8.67;7.80;;;4.60;55.70;;;;;;5025340;28;20602;-46
2022/03/13 02:50:47;;;;;;;11.40;8.60;;;4.50;55.70;;;;;;5023725;28;20823;-46
2022/03/13 02:53:18;;;;;;;15.80;9.37;;;4.50;55.80;;;;;;5023399;28;20493;-45
2022/03/13 02:55:46;;;;;;;14.60;8.77;;;4.50;55.80;;;;;;5020457;28;21001;-46
2022/03/13 02:58:13;;;;;;;11.90;8.77;;;4.50;55.60;;;;;;5023424;28;20490;-46
2022/03/13 03:00:49;;;;;;;13.13;9.83;;;4.40;55.90;;;;;;5020880;28;20473;-45
2022/03/13 03:03:17;;;;;;;17.60;10.53;;;4.40;56.00;;;;;;4990682;28;20473;-45
2022/03/13 03:05:44;;;;;;;13.43;8.70;;;4.40;56.10;;;;;;5016420;28;20462;-45
2022/03/13 03:08:12;;;;;;;13.03;8.47;;;4.40;56.10;;;;;;5022428;28;20459;-46
2022/03/13 03:10:39;;;;;;;19.73;8.80;;;4.40;56.60;;;;;;5021007;28;20464;-46
2022/03/13 03:13:07;;;;;;;11.27;8.03;;;4.40;56.50;;;;;;5017480;28;20495;-46
2022/03/13 03:15:35;;;;;;;11.23;7.97;;;4.40;56.40;;;;;;5013026;28;20460;-46
2022/03/13 03:18:04;;;;;;;14.63;9.20;;;4.40;56.20;;;;;;5018971;28;20946;-46
2022/03/13 03:20:32;;;;;;;15.90;8.40;;;4.40;56.30;;;;;;5019581;28;20467;-46
2022/03/13 03:22:58;;;;;;;13.57;9.00;;;4.40;56.30;;;;;;5004311;28;20464;-46
2022/03/13 03:25:27;;;;;;;11.30;8.37;;;4.40;56.20;;;;;;5016299;28;20463;-46
2022/03/13 03:27:55;;;;;;;11.00;8.27;;;4.40;56.20;;;;;;5017438;28;20787;-46
2022/03/13 03:30:30;;;;;;;12.40;8.43;;;4.30;56.30;;;;;;5018411;28;20904;-46
2022/03/13 03:33:01;;;;;;;12.20;9.33;;;4.20;56.40;;;;;;5023503;28;20483;-46
2022/03/13 03:35:28;;;;;;;13.13;8.90;;;4.20;56.60;;;;;;5022428;28;20473;-46
2022/03/13 03:37:55;;;;;;;13.17;8.77;;;4.20;57.40;;;;;;5024724;28;20944;-46
2022/03/13 03:40:28;;;;;;;13.53;9.07;;;4.20;57.60;;;;;;5024820;28;20455;-45
2022/03/13 03:42:56;;;;;;;9.30;8.10;;;4.20;57.10;;;;;;5022702;28;20871;-46
2022/03/13 03:45:23;;;;;;;11.57;8.90;;;4.20;56.70;;;;;;5025391;28;20477;-46
2022/03/13 03:47:50;;;;;;;14.47;8.60;;;4.20;56.80;;;;;;5024635;28;20624;-46
2022/03/13 03:50:18;;;;;;;10.33;8.23;;;4.20;56.90;;;;;;5023857;28;20475;-46
2022/03/13 03:52:45;;;;;;;12.90;8.30;;;4.20;56.70;;;;;;5022497;28;20855;-46
2022/03/13 03:55:12;;;;;;;13.57;8.43;;;4.10;56.70;;;;;;5042669;28;20452;-46
2022/03/13 03:57:39;;;;;;;16.87;9.83;;;4.00;56.80;;;;;;5028575;28;20760;-45
2022/03/13 04:00:07;;;;;;;12.80;9.40;;;4.00;57.00;;;;;;5026028;28;20463;-46
2022/03/13 04:02:34;;;;;;;11.43;8.60;;;4.00;57.00;;;;;;5022469;28;20463;-46
2022/03/13 04:05:03;;;;;;;15.10;9.30;;;3.90;57.00;;;;;;5024040;28;20467;-46
2022/03/13 04:07:30;;;;;;;13.83;9.20;;;3.90;57.70;;;;;;5039275;28;21752;-46
2022/03/13 04:09:57;;;;;;;13.90;8.77;;;3.90;58.40;;;;;;5026598;28;20460;-46
2022/03/13 04:12:25;;;;;;;12.80;8.70;;;4.00;58.20;;;;;;5027779;28;20487;-46
2022/03/13 04:14:52;;;;;;;11.80;7.50;;;3.90;58.00;;;;;;5027563;28;20890;-46
2022/03/13 04:17:20;;;;;;;12.40;8.87;;;3.90;57.90;;;;;;5033746;28;20850;-46
2022/03/13 04:19:47;;;;;;;13.77;8.93;;;3.90;57.70;;;;;;5024246;28;20804;-46
2022/03/13 04:22:17;;;;;;;17.00;8.13;;;3.80;57.90;;;;;;5007945;28;20467;-46
2022/03/13 04:24:43;;;;;;;14.17;8.60;;;3.80;57.80;;;;;;5026562;28;20795;-46
2022/03/13 04:27:10;;;;;;;15.20;9.50;;;3.80;57.90;;;;;;5022818;28;21038;-47
2022/03/13 04:29:37;;;;;;;12.70;8.97;;;3.80;57.80;;;;;;5024426;28;20460;-45
2022/03/13 04:32:05;;;;;;;12.53;9.43;;;3.80;57.60;;;;;;5023002;28;20500;-46
2022/03/13 04:34:32;;;;;;;10.77;8.10;;;3.80;57.60;;;;;;5023528;28;20458;-46
2022/03/13 04:37:00;;;;;;;14.20;9.90;;;3.70;57.80;;;;;;5036875;28;20490;-45
2022/03/13 04:39:28;;;;;;;13.10;8.20;;;3.70;57.50;;;;;;5025172;28;20467;-45
2022/03/13 04:41:54;;;;;;;12.13;8.90;;;3.70;57.50;;;;;;5024787;28;20821;-45
2022/03/13 04:44:22;;;;;;;17.40;9.63;;;3.70;57.60;;;;;;5022808;28;20470;-46
2022/03/13 04:46:49;;;;;;;12.00;8.10;;;3.70;57.90;;;;;;5027276;28;20878;-46
2022/03/13 04:49:15;;;;;;;11.50;8.30;;;3.70;57.90;;;;;;5021192;28;20898;-46
2022/03/13 04:51:42;;;;;;;8.90;8.00;;;3.60;57.70;;;;;;5017112;28;20464;-45
2022/03/13 04:54:09;;;;;;;15.10;9.87;;;3.60;57.90;;;;;;5024311;28;20993;-45
2022/03/13 04:56:36;;;;;;;13.63;8.67;;;3.60;57.80;;;;;;5009189;28;20551;-46
2022/03/13 04:59:07;;;;;;;13.57;8.60;;;3.50;58.20;;;;;;5008266;28;20461;-45
2022/03/13 05:01:34;;;;;;;9.80;7.63;;;3.50;58.40;;;;;;5023760;28;20459;-48
2022/03/13 05:04:01;;;;;;;10.40;8.83;;;3.50;58.30;;;;;;5024592;28;20898;-47
2022/03/13 05:06:28;;;;;;;19.27;10.43;;;3.50;58.50;;;;;;5007324;28;20495;-47
2022/03/13 05:08:55;;;;;;;11.87;8.57;;;3.40;58.50;;;;;;5017765;28;20464;-47
2022/03/13 05:11:22;;;;;;;10.77;8.10;;;3.40;59.00;;;;;;5006022;28;20478;-47
2022/03/13 05:13:48;;;;;;;13.87;8.73;;;3.40;58.90;;;;;;5006855;28;20488;-45
2022/03/13 05:16:15;;;;;;;11.90;8.67;;;3.40;58.60;;;;;;5025864;28;20462;-46
2022/03/13 05:18:42;;;;;;;15.80;8.97;;;3.40;58.20;;;;;;5024013;28;20451;-46
2022/03/13 05:21:09;;;;;;;10.57;8.53;;;3.40;58.30;;;;;;5021825;28;20459;-47
2022/03/13 05:23:36;;;;;;;12.70;9.70;;;3.40;58.60;;;;;;5021337;28;20458;-46
2022/03/13 05:26:03;;;;;;;15.10;11.00;;;3.40;58.60;;;;;;5023453;28;20461;-46
2022/03/13 05:28:29;;;;;;;15.17;10.80;;;3.40;58.40;;;;;;5023474;28;20459;-46
2022/03/13 05:30:56;;;;;;;13.87;9.47;;;3.40;58.40;;;;;;5021894;28;20498;-46
2022/03/13 05:33:23;;;;;;;14.00;9.07;;;3.40;58.50;;;;;;5024644;28;20493;-45
2022/03/13 05:35:50;;;;;;;14.37;8.70;;;3.30;58.30;;;;;;5020802;28;20452;-45
2022/03/13 05:38:17;;;;;;;9.63;7.57;;;3.30;58.40;;;;;;5009879;28;20460;-46
2022/03/13 05:40:44;;;;;;;9.67;8.40;;;3.30;58.60;;;;;;5021256;28;20459;-46
2022/03/13 05:43:13;;;;;;;11.73;8.03;;;3.30;58.70;;;;;;5024436;28;20614;-46
2022/03/13 05:45:41;;;;;;;13.20;8.43;;;3.20;58.80;;;;;;5021460;28;20467;-45
2022/03/13 05:48:11;;;;;;;11.77;9.73;;;3.20;58.80;;;;;;5020994;28;20518;-46
2022/03/13 05:50:38;;;;;;;12.10;8.10;;;3.20;58.60;;;;;;5021154;28;20464;-46
2022/03/13 05:53:05;;;;;;;15.73;8.67;;;3.20;58.50;;;;;;5021080;28;20566;-46
2022/03/13 05:55:32;;;;;;;9.70;8.70;;;3.20;58.60;;;;;;5024289;28;20454;-46
2022/03/13 05:58:00;;;;;;;11.47;8.57;;;3.20;58.60;;;;;;5024015;28;20455;-46
2022/03/13 06:00:29;;;;;;;13.17;8.10;;;3.20;58.90;;;;;;5008293;28;20463;-46
2022/03/13 06:02:56;;;;;;;13.90;8.40;;;3.20;59.50;;;;;;5023320;28;20517;-46
2022/03/13 06:05:23;;;;;;;9.00;7.80;;;3.20;59.20;;;;;;5023314;28;20457;-46
2022/03/13 06:07:50;;;;;;;14.27;8.30;;;3.30;58.90;;;;;;5021326;28;20481;-46
2022/03/13 06:10:21;;;;;;;12.93;8.00;;;3.20;58.60;;;;;;5026533;28;20462;-45
2022/03/13 06:12:48;;;;;;;14.40;8.90;;;3.20;58.80;;;;;;5024016;28;21103;-45
2022/03/13 06:15:17;;;;;;;16.83;9.23;;;3.20;59.10;;;;;;5024057;28;20532;-46
2022/03/13 06:17:46;;;;;;;10.90;8.70;;;3.20;59.30;;;;;;5023009;28;20975;-46
2022/03/13 06:20:16;;;;;;;12.00;8.60;;;3.20;59.50;;;;;;5024734;28;20462;-45
2022/03/13 06:22:45;;;;;;;15.97;8.33;;;3.20;59.40;;;;;;5022321;28;20673;-45
2022/03/13 06:25:13;;;;;;;14.50;8.57;;;3.30;59.40;;;;;;5017255;28;20471;-45
2022/03/13 06:27:41;;;;;;;12.53;7.80;;;3.30;59.50;;;;;;5040211;28;20455;-45
2022/03/13 06:30:14;;;;;;;11.77;8.70;;;3.30;59.70;;;;;;5022236;28;20889;-46
2022/03/13 06:32:43;;;;;;;11.97;8.50;;;3.30;59.60;;;;;;5030901;28;20824;-46
2022/03/13 06:35:11;;;;;;;14.93;8.40;;;3.30;59.50;;;;;;5022031;28;20802;-46
2022/03/13 06:37:39;;;;;;;12.00;8.20;;;3.30;59.50;;;;;;5022812;28;20535;-46
2022/03/13 06:40:13;;;;;;;10.40;7.70;;;3.40;58.90;;;;;;5008380;28;20544;-46
2022/03/13 06:42:40;;;;;;;8.37;7.17;;;3.40;58.20;;;;;;5020867;28;20867;-46
2022/03/13 06:45:10;;;;;;;12.20;7.00;;;3.50;56.80;;;;;;5020004;28;20459;-46
2022/03/13 06:47:44;;;;;;;10.37;7.80;;;3.50;55.10;;;;;;5022387;28;20941;-46
2022/03/13 06:50:23;;;;;;;9.73;6.90;;;3.70;53.60;;;;;;5017236;28;20550;-46
2022/03/13 06:52:52;;;;;;;10.80;7.53;;;3.80;53.50;;;;;;5019057;28;20483;-46
2022/03/13 06:55:21;;;;;;;8.60;7.40;;;3.90;52.60;;;;;;5019589;28;20448;-46
2022/03/13 06:57:50;;;;;;;11.23;7.27;;;4.00;52.60;;;;;;5026269;28;21348;-46
2022/03/13 07:00:17;;;;;;;8.10;6.70;;;4.20;51.80;;;;;;5019351;28;20736;-46
2022/03/13 07:02:48;;;;;;;8.33;6.93;;;4.40;50.60;;;;;;5002783;28;21243;-46
2022/03/13 07:05:16;;;;;;;8.63;6.93;;;4.60;49.50;;;;;;5009840;28;20455;-46
2022/03/13 07:07:43;;;;;;;8.47;6.77;;;4.80;48.60;;;;;;5023489;28;20467;-45
2022/03/13 07:10:11;;;;;;;11.77;8.67;;;5.00;49.10;;;;;;5021350;28;20471;-46
2022/03/13 07:12:44;;;;;;;12.40;7.53;;;5.10;48.90;;;;;;5025573;28;21101;-46
2022/03/13 07:15:13;;;;;;;12.00;8.33;;;5.30;48.50;;;;;;5029218;28;20461;-45
2022/03/13 07:17:41;;;;;;;10.33;8.60;;;5.40;48.20;;;;;;5023291;28;20918;-46
2022/03/13 07:20:08;;;;;;;10.07;7.73;;;5.50;47.50;;;;;;5021463;28;20483;-45
2022/03/13 07:22:35;;;;;;;9.10;7.83;;;5.70;46.90;;;;;;5025844;28;20467;-45
2022/03/13 07:25:04;;;;;;;10.17;7.40;;;5.80;48.30;;;;;;5024571;28;20991;-45
2022/03/13 07:27:31;;;;;;;12.57;7.60;;;5.80;46.40;;;;;;5021581;28;20472;-45
2022/03/13 07:29:57;;;;;;;10.03;7.20;;;5.90;45.70;;;;;;5038135;28;20472;-45
2022/03/13 07:32:24;;;;;;;10.80;7.37;;;5.90;45.10;;;;;;5019306;28;20460;-45
2022/03/13 07:34:51;;;;;;;8.67;7.77;;;5.90;45.30;;;;;;5025089;28;20460;-45
2022/03/13 07:37:18;;;;;;;8.47;7.23;;;6.00;45.20;;;;;;5025128;28;20452;-45
2022/03/13 07:39:48;;;;;;;12.47;8.03;;;6.10;45.10;;;;;;5025540;28;20453;-45
2022/03/13 07:42:16;;;;;;;8.63;7.63;;;6.20;44.60;;;;;;5022815;28;20455;-44
2022/03/13 07:44:43;;;;;;;11.90;7.93;;;6.20;43.40;;;;;;5005809;28;20853;-45
2022/03/13 07:47:10;;;;;;;11.03;6.70;;;6.20;42.90;;;;;;5008777;28;20494;-45
2022/03/13 07:49:37;;;;;;;16.37;8.47;;;6.30;43.70;;;;;;5025528;28;20455;-45
2022/03/13 07:52:04;;;;;;;10.20;8.07;;;6.30;43.00;;;;;;5016379;28;20465;-45
2022/03/13 07:54:31;;;;;;;10.00;7.30;;;6.30;42.90;;;;;;5021350;28;20497;-46
2022/03/13 07:56:58;;;;;;;11.63;7.77;;;6.30;42.80;;;;;;5004601;28;20463;-45
2022/03/13 07:59:24;;;;;;;9.00;7.50;;;6.40;43.20;;;;;;5009020;28;20455;-46
2022/03/13 08:01:51;;;;;;;12.13;9.23;;;6.50;42.90;;;;;;5025465;28;20806;-46
2022/03/13 08:04:19;;;;;;;9.67;8.60;;;6.60;43.10;;;;;;5035543;28;20545;-46
2022/03/13 08:06:45;;;;;;;10.40;8.10;;;6.80;42.80;;;;;;5023817;28;20471;-46
2022/03/13 08:09:15;;;;;;;10.37;9.10;;;7.00;42.50;;;;;;5025373;28;20479;-46
2022/03/13 08:11:42;;;;;;;11.03;7.60;;;7.20;41.80;;;;;;5011432;28;20454;-46
2022/03/13 08:14:10;;;;;;;11.37;8.37;;;7.30;41.60;;;;;;5023056;28;21003;-46
2022/03/13 08:16:36;;;;;;;10.33;8.50;;;7.50;41.60;;;;;;5022811;28;20458;-46
2022/03/13 08:19:05;;;;;;;11.30;8.63;;;7.80;40.90;;;;;;5025254;28;20546;-46
2022/03/13 08:21:32;;;;;;;10.67;8.47;;;8.00;40.90;;;;;;5008941;28;20988;-46
2022/03/13 08:23:59;;;;;;;10.47;8.03;;;8.20;40.40;;;;;;5023732;28;20468;-46
2022/03/13 08:26:27;;;;;;;9.40;8.37;;;8.40;39.90;;;;;;5023059;28;20459;-46
2022/03/13 08:28:54;;;;;;;11.03;8.50;;;8.60;39.80;;;;;;5020933;28;20923;-46
2022/03/13 08:31:20;;;;;;;13.97;8.90;;;8.80;39.10;;;;;;5022910;28;20458;-46
2022/03/13 08:33:47;;;;;;;12.07;9.17;;;9.00;38.90;;;;;;5005861;28;20483;-46
2022/03/13 08:36:14;;;;;;;9.53;8.23;;;9.20;38.60;;;;;;5023685;28;20871;-46
2022/03/13 08:38:41;;;;;;;9.00;7.87;;;9.20;38.60;;;;;;5008807;28;20468;-45
2022/03/13 08:41:08;;;;;;;10.63;9.37;;;9.30;38.60;;;;;;5026562;28;20482;-46
2022/03/13 08:43:35;;;;;;;11.43;9.50;;;9.40;38.50;;;;;;5023138;28;20479;-46
2022/03/13 08:46:02;;;;;;;9.30;8.40;;;9.40;39.30;;;;;;5023245;28;20473;-46
2022/03/13 08:48:29;;;;;;;11.70;9.10;;;9.50;38.50;;;;;;5026192;28;20471;-46
2022/03/13 08:50:57;;;;;;;9.63;8.10;;;9.50;39.10;;;;;;5025205;28;20464;-46
2022/03/13 08:53:24;;;;;;;11.03;8.40;;;9.60;38.80;;;;;;5024746;28;20487;-45
2022/03/13 08:55:51;;;;;;;9.03;8.17;;;9.70;39.60;;;;;;5021083;28;22198;-46
2022/03/13 08:58:17;;;;;;;11.40;9.27;;;9.80;39.40;;;;;;5027539;28;20460;-46
2022/03/13 09:00:44;;;;;;;14.97;9.37;;;9.90;38.50;;;;;;5025061;28;20771;-46
2022/03/13 09:03:11;;;;;;;12.57;8.70;;;10.00;38.10;;;;;;5026354;28;20470;-46
2022/03/13 09:05:39;;;;;;;12.40;8.97;;;10.10;37.90;;;;;;5023622;28;20479;-46
2022/03/13 09:08:05;;;;;;;11.43;8.30;;;10.20;38.10;;;;;;5013344;28;20443;-46
2022/03/13 09:10:32;;;;;;;10.53;9.37;;;10.20;38.10;;;;;;5024557;28;20886;-46
2022/03/13 09:12:59;;;;;;;9.97;8.83;;;10.30;38.30;;;;;;5023820;28;20771;-46
2022/03/13 09:15:26;;;;;;;9.97;8.47;;;10.40;38.50;;;;;;5022211;28;20943;-46
2022/03/13 09:17:54;;;;;;;12.60;9.73;;;10.50;39.30;;;;;;5022066;28;20470;-46
2022/03/13 09:20:22;;;;;;;15.47;9.20;;;10.60;39.30;;;;;;5021862;28;20484;-46
2022/03/13 09:22:49;;;;;;;11.73;8.17;;;10.60;39.30;;;;;;5022857;28;20461;-46
2022/03/13 09:25:18;;;;;;;9.33;8.37;;;10.60;38.20;;;;;;5023321;28;20456;-46
2022/03/13 09:27:45;;;;;;;11.03;8.30;;;10.70;38.20;;;;;;5016081;28;21360;-46
2022/03/13 09:30:13;;;;;;;9.93;8.33;;;10.80;38.70;;;;;;5021676;28;20464;-46
2022/03/13 09:32:40;;;;;;;10.00;8.43;;;10.90;38.40;;;;;;5024665;28;20458;-47
2022/03/13 09:35:08;;;;;;;9.53;8.40;;;10.90;37.40;;;;;;5016666;28;21028;-47
2022/03/13 09:37:36;;;;;;;11.30;8.57;;;11.00;36.40;;;;;;5015558;28;20450;-47
2022/03/13 09:40:14;;;;;;;10.30;9.23;;;11.00;36.00;;;;;;5020743;28;20464;-47
2022/03/13 09:42:42;;;;;;;9.50;8.40;;;11.10;36.30;;;;;;5020604;28;20466;-47
2022/03/13 09:45:10;;;;;;;12.07;8.70;;;11.10;35.90;;;;;;5021457;28;20448;-46
2022/03/13 09:47:37;;;;;;;11.90;8.80;;;11.20;35.60;;;;;;5008599;28;20821;-46
2022/03/13 09:50:07;;;;;;;9.70;8.80;;;11.30;35.00;;;;;;5010786;28;20452;-46
2022/03/13 09:52:36;;;;;;;9.80;8.60;;;11.40;35.30;;;;;;5021054;28;20456;-46
2022/03/13 09:55:03;;;;;;;11.17;8.40;;;11.60;35.30;;;;;;5021211;28;21188;-46
2022/03/13 09:57:30;;;;;;;11.37;9.07;;;11.90;35.10;;;;;;5008599;28;20448;-46
2022/03/13 09:59:57;;;;;;;9.23;8.30;;;12.10;34.70;;;;;;5022818;28;20459;-47
2022/03/13 10:02:34;;;;;;;9.77;7.87;;;12.40;34.30;;;;;;5020425;28;20557;-47
2022/03/13 10:05:09;;;;;;;10.23;8.50;;;12.60;34.60;;;;;;5009095;28;20447;-46
2022/03/13 10:07:58;;;;;;;12.63;9.27;;;12.80;33.80;;;;;;5021248;28;20459;-47
2022/03/13 10:10:28;;;;;;;10.73;9.63;;;13.00;33.10;;;;;;5023622;28;20555;-47
2022/03/13 10:12:55;;;;;;;10.50;8.50;;;13.20;33.20;;;;;;5022700;28;20470;-47
2022/03/13 10:15:21;;;;;;;10.27;9.20;;;13.30;33.50;;;;;;5020065;28;20459;-47
2022/03/13 10:17:48;;;;;;;11.50;9.20;;;13.50;32.50;;;;;;5023068;28;20470;-46
2022/03/13 10:20:26;;;;;;;9.50;8.30;;;13.60;31.80;;;;;;5020494;28;20469;-47
2022/03/13 10:23:02;;;;;;;12.20;8.57;;;13.60;32.40;;;;;;5021296;28;20825;-47
2022/03/13 10:25:34;;;;;;;13.20;9.40;;;13.60;31.40;;;;;;5018915;28;20463;-47
2022/03/13 10:28:15;;;;;;;10.97;8.80;;;13.80;31.80;;;;;;5019173;28;20463;-47
2022/03/13 10:30:44;;;;;;;11.27;10.17;;;14.00;32.20;;;;;;5022075;28;20491;-46
2022/03/13 10:33:11;;;;;;;11.67;9.00;;;14.20;31.40;;;;;;5022638;28;20966;-47
2022/03/13 10:35:39;;;;;;;11.43;8.90;;;14.50;30.70;;;;;;5022916;28;20973;-47
2022/03/13 10:38:23;;;;;;;12.10;9.70;;;14.80;31.70;;;;;;5037483;28;20455;-47
2022/03/13 10:40:56;;;;;;;14.30;9.90;;;15.10;31.00;;;;;;5020763;28;20963;-47
2022/03/13 10:43:26;;;;;;;11.13;9.73;;;15.50;30.60;;;;;;5029929;28;20459;-47
2022/03/13 10:45:54;;;;;;;12.43;9.17;;;15.80;30.70;;;;;;5019931;28;20460;-47
2022/03/13 10:48:32;;;;;;;10.03;8.97;;;16.00;29.60;;;;;;5019127;28;20471;-47
2022/03/13 10:51:02;;;;;;;10.47;8.40;;;16.10;29.30;;;;;;5026641;28;20990;-47
2022/03/13 10:53:29;;;;;;;12.43;9.30;;;16.30;28.70;;;;;;5015465;28;20492;-46
2022/03/13 10:56:14;;;;;;;9.70;8.70;;;16.50;29.30;;;;;;5021950;28;20460;-47
2022/03/13 10:58:48;;;;;;;11.30;9.17;;;16.60;28.00;;;;;;5017333;28;20892;-47
2022/03/13 11:01:17;;;;;;;10.90;9.80;;;16.70;27.80;;;;;;5018380;28;20450;-47
2022/03/13 11:03:49;;;;;;;11.50;10.13;;;16.80;29.10;;;;;;5019286;28;20976;-47
2022/03/13 11:06:16;;;;;;;10.40;9.30;;;16.80;29.40;;;;;;5021451;28;21023;-47
2022/03/13 11:08:43;;;;;;;11.53;9.33;;;16.70;28.60;;;;;;5006108;28;20463;-47
2022/03/13 11:11:12;;;;;;;10.47;9.47;;;16.50;29.20;;;;;;5006912;28;20790;-46
2022/03/13 11:13:39;;;;;;;10.53;9.43;;;16.50;28.90;;;;;;5020947;28;20545;-47
2022/03/13 11:16:09;;;;;;;11.40;10.27;;;16.60;29.20;;;;;;5017894;28;20482;-47
2022/03/13 11:18:38;;;;;;;11.13;10.03;;;16.60;28.30;;;;;;5021497;28;20554;-47
2022/03/13 11:21:08;;;;;;;10.43;9.33;;;16.60;28.30;;;;;;5019080;28;20460;-47
2022/03/13 11:23:36;;;;;;;10.73;9.63;;;16.70;29.00;;;;;;5021711;28;20491;-47
2022/03/13 11:26:05;;;;;;;11.40;9.67;;;16.80;28.40;;;;;;5019536;28;20455;-48
2022/03/13 11:28:32;;;;;;;11.13;9.33;;;16.80;28.30;;;;;;5025742;28;20447;-47
2022/03/13 11:30:59;;;;;;;12.33;9.07;;;16.80;28.30;;;;;;5026734;28;20461;-47
2022/03/13 11:33:44;;;;;;;11.50;9.60;;;16.80;28.70;;;;;;5035530;28;20452;-47
2022/03/13 11:36:47;;;;;;;10.73;9.73;;;16.70;27.90;;;;;;5015738;28;20554;-47
2022/03/13 11:39:31;;;;;;;10.17;9.07;;;16.60;29.70;;;;;;4959531;28;20460;-47
2022/03/13 11:42:01;;;;;;;10.13;9.10;;;16.60;29.80;;;;;;5018262;28;20964;-46
2022/03/13 11:44:28;;;;;;;12.43;11.07;;;16.60;29.80;;;;;;5003392;28;20546;-46
2022/03/13 11:46:58;;;;;;;11.10;9.40;;;16.40;29.10;;;;;;5022867;28;20493;-47
2022/03/13 11:49:36;;;;;;;10.97;9.70;;;16.40;29.20;;;;;;5022345;28;20506;-47
2022/03/13 11:52:13;;;;;;;10.67;9.57;;;16.40;28.70;;;;;;5020317;28;20509;-47
2022/03/13 11:54:50;;;;;;;13.67;9.90;;;16.30;29.10;;;;;;5024627;28;20505;-47
2022/03/13 11:57:22;;;;;;;11.93;9.30;;;16.30;30.90;;;;;;5023597;28;20567;-47
2022/03/13 12:00:14;;;;;;;10.70;9.60;;;16.20;29.90;;;;;;5010867;28;20514;-46
2022/03/13 12:02:41;;;;;;;12.67;9.20;;;16.20;29.70;;;;;;5017427;28;20567;-47
2022/03/13 12:05:28;;;;;;;11.83;10.00;;;16.20;30.40;;;;;;5022531;28;20467;-47
2022/03/13 12:08:04;;;;;;;11.50;10.00;;;16.30;30.90;;;;;;5027714;28;20517;-46
2022/03/13 12:10:41;;;;;;;11.47;10.10;;;16.30;29.70;;;;;;5006210;28;20463;-47
2022/03/13 12:13:13;;;;;;;10.90;9.27;;;16.20;29.90;;;;;;5006976;28;20467;-47
2022/03/13 12:15:41;;;;;;;11.60;10.07;;;16.20;30.20;;;;;;5025020;28;20798;-47
2022/03/13 12:18:24;;;;;;;11.60;10.43;;;16.20;29.20;;;;;;5025478;28;20482;-46
2022/03/13 12:20:52;;;;;;;11.63;9.80;;;16.20;29.40;;;;;;5023632;28;20812;-46
2022/03/13 12:23:31;;;;;;;11.40;9.00;;;16.20;30.00;;;;;;5020559;28;20443;-47
2022/03/13 12:26:13;;;;;;;10.00;9.00;;;16.20;29.90;;;;;;5008149;28;20463;-46
2022/03/13 12:28:39;;;;;;;12.47;10.40;;;16.30;30.60;;;;;;5025280;28;20446;-47
2022/03/13 12:31:06;;;;;;;12.27;10.13;;;16.30;30.80;;;;;;5018823;28;20964;-46
2022/03/13 12:33:36;;;;;;;10.90;9.37;;;16.40;30.60;;;;;;5025710;28;20965;-47
2022/03/13 12:36:03;;;;;;;11.53;10.30;;;16.50;30.50;;;;;;5019533;28;20452;-47
2022/03/13 12:38:33;;;;;;;11.00;9.90;;;16.60;29.60;;;;;;5005978;28;20468;-47
2022/03/13 12:41:02;;;;;;;14.23;10.50;;;16.60;29.30;;;;;;5025726;28;20511;-46
2022/03/13 12:43:50;;;;;;;11.90;10.70;;;16.60;29.30;;;;;;5023456;28;20460;-46
2022/03/13 12:46:19;;;;;;;11.40;10.23;;;16.60;30.00;;;;;;5024542;28;20916;-47
2022/03/13 12:49:00;;;;;;;11.17;9.67;;;16.70;30.60;;;;;;5024965;28;20464;-48
2022/03/13 12:51:45;;;;;;;12.60;10.03;;;16.70;30.40;;;;;;5022401;28;20455;-47
2022/03/13 12:54:33;;;;;;;11.50;10.23;;;16.80;30.10;;;;;;5026161;28;20487;-47